Αρχική σελίδα
METAR-TAF:

METAR-TAF

Αεροδρόμια :

Γκραν Κανάρια, Ισπανία

γεωγραφικό πλάτος: 27-56N, γεωγραφικό μήκος: 015-23W, υψόμετρο: 23 μ

Παρών καιρός

Η αναφορά έγινε 37 λεπτά πριν, στις 02:30 UTC
Άνεμος 5 kt από Β
Θερμοκρασία 20°C
Υγρασία 73%
Πίεση 1016 hPa
Ορατότητα 10 χλμ και άνω
Διάσπαρτα νέφη σε ύψος 2500 πόδια

METAR: GCLP 240230Z 35005KT 9999 SCT025 20/15 Q1016 NOSIG

Χρόνος: 04:07 (03:07 UTC)

Πρόγνωση Καιρού

Η αναφορά έγινε 1 ώρα και 7 λεπτά πριν, στις 02:00 UTC
Η πρόγνωση ισχύει από τις 24 στις 03 UTC έως τις 25 στις 03 UTC
Άνεμος 6 kt από Β
Ορατότητα 10 χλμ και άνω
Διάσπαρτα νέφη σε ύψος 2500 πόδια
Καθιστάμενος
από 24 στις 09 UTC έως τις 24 στις 11 UTC
Άνεμος 16 kt από Β/BA

TAF: GCLP 240200Z 2403/2503 35006KT 9999 SCT025 TX26/2414Z TN19/2405Z BECMG 2409/2411 03016KT

Μετεωρολογικές αναφορές και προγνώσεις για περισσότερα από 4000 αεροδρόμια (δελτία METAR και TAF).

Οι διαθέσιμοι σταθμοί απεικονίζονται στο χάρτη με κίτρινες και κόκκινες κουκκίδες.

Μετακινήστε το ποντίκι πάνω από τις κουκκίδες για να δείτε το όνομα του σταθμού.

Στη συνέχεια, κάντε κλικ για να δείτε τις μετεωρολογικές αναφορές και τις προγνώσεις καιρού.

Για να αλλάξετε το χάρτη: κάντε κλικ στα πράσινα κουμπιά με τον μαύρο σταυρό για να ζουμάρετε, στο πράσινο κουμπί με την παύλα για να αφαιρέσετε το ζουμ ή στα πράσινα βέλη για να αντιπαραβάλλετε χάρτες.


METAR-TAF: